Joyce L. Vanenkevort — WDB9821 — position and weather

sailwx.info

Track history (hours):
 
Tides and Currents Weather Stations Pressure Air Temp Water Temp Dewpoint Dewpoint Depression Visibility Wind Speed Wind Dir Waves Ship Positions

Joyce L. Vanenkevort

Owner: VanEnkevort Tug & Barge, Escanaba, MI. More information available from US FCC via Universal Licensing System and Coast Guard Vessel Documentation Center.

Last reported at 2018-Jan-11 10:38 UTC. Time now 2018-Jan-18 15:27 UTC.
Position N 45°51' W 084°21'.

Length 258 m.

Type: Other ship. MMSI: 366983440.

Date/timePositionNaut miles runAvg speedWind from/ knotsBaromVisibWave heightAir tempDewpointWater temp
2018-Jan-11 10:38N 45°51' W 084°21'211.9
2018-Jan-11 10:30N 45°51' W 084°23'612.1
2018-Jan-11 10:00N 45°51' W 084°32'611.6
2018-Jan-11 09:30N 45°50' W 084°40'510.2
2018-Jan-11 09:00N 45°49' W 084°47'3 6.8
2018-Jan-11 08:30N 45°50' W 084°52'4 8.9
2018-Jan-11 08:00N 45°51' W 084°58'4 7.9
2018-Jan-11 07:30N 45°50' W 085°04'2 3.4
2018-Jan-11 07:00N 45°52' W 085°04'3 6.5
2018-Jan-11 06:30N 45°52' W 085°09'1 3.0
2018-Jan-11 06:00N 45°52' W 085°11'5 9.7
2018-Jan-11 05:30N 45°53' W 085°18'611.1
2018-Jan-11 05:00N 45°53' W 085°26'611.7
2018-Jan-11 04:30N 45°53' W 085°34'612.3
2018-Jan-11 04:00N 45°50' W 085°42'612.3
2018-Jan-11 03:30N 45°47' W 085°50'611.8
2018-Jan-11 02:58N 45°42' W 085°56'612.0
2018-Jan-11 02:30N 45°38' W 086°00'712.0
2018-Jan-11 01:54N 45°31' W 086°04'511.9
2018-Jan-11 01:27N 45°26' W 086°06'  
2018-Jan-08 18:49N 45°49' W 085°58'410.8
2018-Jan-08 18:30N 45°50' W 085°53'611.0
2018-Jan-08 17:59N 45°51' W 085°45'511.1
2018-Jan-08 17:30N 45°53' W 085°37'510.8
2018-Jan-08 17:00N 45°53' W 085°30'510.6
2018-Jan-08 16:30N 45°53' W 085°22'510.0
2018-Jan-08 16:00N 45°52' W 085°15'12 7.8
2018-Jan-08 14:30N 45°50' W 084°59'0 0.2
2018-Jan-08 13:59N 45°50' W 084°59'0 0.0
2018-Jan-08 03:51N 45°50' W 084°59'0 0.0
2018-Jan-08 03:28N 45°50' W 084°59'0 0.0
2018-Jan-08 03:00N 45°50' W 084°59'0 0.0
2018-Jan-08 02:29N 45°50' W 084°59'0 0.0
2018-Jan-08 01:58N 45°50' W 084°59'1 2.4
2018-Jan-08 01:30N 45°50' W 084°58'1 1.7
2018-Jan-08 01:00N 45°50' W 084°57'3 6.0
2018-Jan-08 00:30N 45°50' W 084°52'1 1.6
2018-Jan-08 00:00N 45°49' W 084°51'0 0.7
2018-Jan-07 23:30N 45°49' W 084°52'1 2.7
2018-Jan-07 23:00N 45°49' W 084°50'3 6.4
2018-Jan-07 22:30N 45°49' W 084°45'5 9.0
2018-Jan-07 22:00N 45°50' W 084°39'5 9.4
2018-Jan-07 21:29N 45°51' W 084°32'510.4
2018-Jan-07 21:00N 45°52' W 084°25'510.9
2018-Jan-07 20:30N 45°53' W 084°17'  
2018-Jan-05 07:32N 46°59' W 091°38'010.1
2018-Jan-05 07:30N 46°58' W 091°39'5 9.9
2018-Jan-05 07:00N 46°55' W 091°44'5 9.9
2018-Jan-05 06:30N 46°53' W 091°50'510.0
2018-Jan-05 06:00N 46°50' W 091°57'510.0
2018-Jan-05 05:30N 46°48' W 092°03'3 5.4
2018-Jan-05 05:00N 46°46' W 092°06'1 1.6
2018-Jan-05 04:30N 46°45' W 092°06'1 2.6
2018-Jan-05 04:00N 46°45' W 092°08'0 0.8
2018-Jan-05 03:30N 46°45' W 092°08'0 0.9
2018-Jan-05 03:00N 46°45' W 092°07'0 0.5
2018-Jan-05 02:30N 46°45' W 092°07'1 1.4
2018-Jan-05 02:00N 46°45' W 092°08'0 0.0
2018-Jan-05 01:30N 46°45' W 092°08'0 0.0
2018-Jan-05 01:00N 46°45' W 092°08'0 0.0
2018-Jan-05 00:29N 46°45' W 092°08'0 0.0
2018-Jan-05 00:00N 46°45' W 092°08'0 0.0
2018-Jan-04 23:30N 46°45' W 092°08'0 0.0
2018-Jan-04 23:00N 46°45' W 092°08'0 0.0
2018-Jan-04 22:30N 46°45' W 092°08'0 0.0
2018-Jan-04 22:00N 46°45' W 092°08'0 0.0
2018-Jan-04 21:30N 46°45' W 092°08'0 0.0
2018-Jan-04 21:00N 46°45' W 092°08'0 0.0
2018-Jan-04 20:30N 46°45' W 092°08'0 0.0
2018-Jan-04 20:00N 46°45' W 092°08'0 0.0
2018-Jan-04 19:30N 46°45' W 092°08'0 0.0
2018-Jan-04 19:00N 46°45' W 092°08'0 0.0
2018-Jan-04 18:30N 46°45' W 092°08'0 0.0
2018-Jan-04 18:00N 46°45' W 092°08'0 0.0
2018-Jan-04 17:30N 46°45' W 092°08'0 0.0
2018-Jan-04 17:00N 46°45' W 092°08'0 0.0
2018-Jan-04 16:30N 46°45' W 092°08'0 0.0
2018-Jan-04 16:00N 46°45' W 092°08'1 1.9
2018-Jan-04 15:30N 46°45' W 092°07'1 2.0
2018-Jan-04 15:00N 46°45' W 092°06'1 1.3
2018-Jan-04 14:30N 46°45' W 092°06'1 1.1
2018-Jan-04 14:00N 46°45' W 092°07'1 2.5
2018-Jan-04 13:30N 46°45' W 092°06'4 7.7
2018-Jan-04 13:00N 46°48' W 092°02'612.1
2018-Jan-04 12:30N 46°51' W 091°54'612.0
2018-Jan-04 12:00N 46°55' W 091°47'317 6.9
2018-Jan-02 14:17N 45°52' W 084°17'412.3
2018-Jan-02 13:59N 45°52' W 084°22'612.4
2018-Jan-02 13:30N 45°51' W 084°30'612.2
2018-Jan-02 13:00N 45°50' W 084°39'611.9
2018-Jan-02 12:30N 45°49' W 084°47'611.2
2018-Jan-02 12:00N 45°50' W 084°55'510.6
2018-Jan-02 11:30N 45°51' W 085°03'2 3.2
2018-Jan-02 11:00N 45°51' W 085°05'0 0.3
2018-Jan-02 10:30N 45°51' W 085°05'1 1.4
2018-Jan-02 10:00N 45°51' W 085°06'510.0
2018-Jan-02 09:31N 45°52' W 085°13'1010.3
2018-Jan-02 08:30N 45°53' W 085°28'611.0
2018-Jan-02 08:00N 45°53' W 085°36'511.1
2018-Jan-02 07:30N 45°51' W 085°44'611.2
2018-Jan-02 07:00N 45°50' W 085°52'611.2
2018-Jan-02 06:29N 45°48' W 085°59'610.9
2018-Jan-02 05:58N 45°44' W 086°05'14310.3
2018-Jan-01 16:00N 43°36' W 087°36'   300 / 17
Track history (hours):
 
Tides and Currents Weather Stations Pressure Air Temp Water Temp Dewpoint Dewpoint Depression Visibility Wind Speed Wind Dir Waves Ship Positions

Joyce L. Vanenkevort

Owner: VanEnkevort Tug & Barge, Escanaba, MI. More information available from US FCC via Universal Licensing System and Coast Guard Vessel Documentation Center.

Last reported at 2018-Jan-11 10:38 UTC. Time now 2018-Jan-18 15:27 UTC.
Position N 45°51' W 084°21'.

Length 258 m.

Type: Other ship. MMSI: 366983440.

Date/timePositionNaut miles runAvg speedWind from/ knotsBaromVisibWave heightAir tempDewpointWater temp
2018-Jan-11 10:38N 45°51' W 084°21'211.9
2018-Jan-11 10:30N 45°51' W 084°23'612.1
2018-Jan-11 10:00N 45°51' W 084°32'611.6
2018-Jan-11 09:30N 45°50' W 084°40'510.2
2018-Jan-11 09:00N 45°49' W 084°47'3 6.8
2018-Jan-11 08:30N 45°50' W 084°52'4 8.9
2018-Jan-11 08:00N 45°51' W 084°58'4 7.9
2018-Jan-11 07:30N 45°50' W 085°04'2 3.4
2018-Jan-11 07:00N 45°52' W 085°04'3 6.5
2018-Jan-11 06:30N 45°52' W 085°09'1 3.0
2018-Jan-11 06:00N 45°52' W 085°11'5 9.7
2018-Jan-11 05:30N 45°53' W 085°18'611.1
2018-Jan-11 05:00N 45°53' W 085°26'611.7
2018-Jan-11 04:30N 45°53' W 085°34'612.3
2018-Jan-11 04:00N 45°50' W 085°42'612.3
2018-Jan-11 03:30N 45°47' W 085°50'611.8
2018-Jan-11 02:58N 45°42' W 085°56'612.0
2018-Jan-11 02:30N 45°38' W 086°00'712.0
2018-Jan-11 01:54N 45°31' W 086°04'511.9
2018-Jan-11 01:27N 45°26' W 086°06'  
2018-Jan-08 18:49N 45°49' W 085°58'410.8
2018-Jan-08 18:30N 45°50' W 085°53'611.0
2018-Jan-08 17:59N 45°51' W 085°45'511.1
2018-Jan-08 17:30N 45°53' W 085°37'510.8
2018-Jan-08 17:00N 45°53' W 085°30'510.6
2018-Jan-08 16:30N 45°53' W 085°22'510.0
2018-Jan-08 16:00N 45°52' W 085°15'12 7.8
2018-Jan-08 14:30N 45°50' W 084°59'0 0.2
2018-Jan-08 13:59N 45°50' W 084°59'0 0.0
2018-Jan-08 03:51N 45°50' W 084°59'0 0.0
2018-Jan-08 03:28N 45°50' W 084°59'0 0.0
2018-Jan-08 03:00N 45°50' W 084°59'0 0.0
2018-Jan-08 02:29N 45°50' W 084°59'0 0.0
2018-Jan-08 01:58N 45°50' W 084°59'1 2.4
2018-Jan-08 01:30N 45°50' W 084°58'1 1.7
2018-Jan-08 01:00N 45°50' W 084°57'3 6.0
2018-Jan-08 00:30N 45°50' W 084°52'1 1.6
2018-Jan-08 00:00N 45°49' W 084°51'0 0.7
2018-Jan-07 23:30N 45°49' W 084°52'1 2.7
2018-Jan-07 23:00N 45°49' W 084°50'3 6.4
2018-Jan-07 22:30N 45°49' W 084°45'5 9.0
2018-Jan-07 22:00N 45°50' W 084°39'5 9.4
2018-Jan-07 21:29N 45°51' W 084°32'510.4
2018-Jan-07 21:00N 45°52' W 084°25'510.9
2018-Jan-07 20:30N 45°53' W 084°17'  
2018-Jan-05 07:32N 46°59' W 091°38'010.1
2018-Jan-05 07:30N 46°58' W 091°39'5 9.9
2018-Jan-05 07:00N 46°55' W 091°44'5 9.9
2018-Jan-05 06:30N 46°53' W 091°50'510.0
2018-Jan-05 06:00N 46°50' W 091°57'510.0
2018-Jan-05 05:30N 46°48' W 092°03'3 5.4
2018-Jan-05 05:00N 46°46' W 092°06'1 1.6
2018-Jan-05 04:30N 46°45' W 092°06'1 2.6
2018-Jan-05 04:00N 46°45' W 092°08'0 0.8
2018-Jan-05 03:30N 46°45' W 092°08'0 0.9
2018-Jan-05 03:00N 46°45' W 092°07'0 0.5
2018-Jan-05 02:30N 46°45' W 092°07'1 1.4
2018-Jan-05 02:00N 46°45' W 092°08'0 0.0
2018-Jan-05 01:30N 46°45' W 092°08'0 0.0
2018-Jan-05 01:00N 46°45' W 092°08'0 0.0
2018-Jan-05 00:29N 46°45' W 092°08'0 0.0
2018-Jan-05 00:00N 46°45' W 092°08'0 0.0
2018-Jan-04 23:30N 46°45' W 092°08'0 0.0
2018-Jan-04 23:00N 46°45' W 092°08'0 0.0
2018-Jan-04 22:30N 46°45' W 092°08'0 0.0
2018-Jan-04 22:00N 46°45' W 092°08'0 0.0
2018-Jan-04 21:30N 46°45' W 092°08'0 0.0
2018-Jan-04 21:00N 46°45' W 092°08'0 0.0
2018-Jan-04 20:30N 46°45' W 092°08'0 0.0
2018-Jan-04 20:00N 46°45' W 092°08'0 0.0
2018-Jan-04 19:30N 46°45' W 092°08'0 0.0
2018-Jan-04 19:00N 46°45' W 092°08'0 0.0
2018-Jan-04 18:30N 46°45' W 092°08'0 0.0
2018-Jan-04 18:00N 46°45' W 092°08'0 0.0
2018-Jan-04 17:30N 46°45' W 092°08'0 0.0
2018-Jan-04 17:00N 46°45' W 092°08'0 0.0
2018-Jan-04 16:30N 46°45' W 092°08'0 0.0
2018-Jan-04 16:00N 46°45' W 092°08'1 1.9
2018-Jan-04 15:30N 46°45' W 092°07'1 2.0
2018-Jan-04 15:00N 46°45' W 092°06'1 1.3
2018-Jan-04 14:30N 46°45' W 092°06'1 1.1
2018-Jan-04 14:00N 46°45' W 092°07'1 2.5
2018-Jan-04 13:30N 46°45' W 092°06'4 7.7
2018-Jan-04 13:00N 46°48' W 092°02'612.1
2018-Jan-04 12:30N 46°51' W 091°54'612.0
2018-Jan-04 12:00N 46°55' W 091°47'317 6.9
2018-Jan-02 14:17N 45°52' W 084°17'412.3
2018-Jan-02 13:59N 45°52' W 084°22'612.4
2018-Jan-02 13:30N 45°51' W 084°30'612.2
2018-Jan-02 13:00N 45°50' W 084°39'611.9
2018-Jan-02 12:30N 45°49' W 084°47'611.2
2018-Jan-02 12:00N 45°50' W 084°55'510.6
2018-Jan-02 11:30N 45°51' W 085°03'2 3.2
2018-Jan-02 11:00N 45°51' W 085°05'0 0.3
2018-Jan-02 10:30N 45°51' W 085°05'1 1.4
2018-Jan-02 10:00N 45°51' W 085°06'510.0
2018-Jan-02 09:31N 45°52' W 085°13'1010.3
2018-Jan-02 08:30N 45°53' W 085°28'611.0
2018-Jan-02 08:00N 45°53' W 085°36'511.1
2018-Jan-02 07:30N 45°51' W 085°44'611.2
2018-Jan-02 07:00N 45°50' W 085°52'611.2
2018-Jan-02 06:29N 45°48' W 085°59'610.9
2018-Jan-02 05:58N 45°44' W 086°05'14310.3
2018-Jan-01 16:00N 43°36' W 087°36'   300 / 17

Dump ship's entire track history